GRU weather

Guarulhos - Governador André Franco Montoro International Airport
São Paulo, São Paulo, Brazil

Public forecast

Using degrees Celsius for public forecast. Weather courtesy of forecast.io.

METAR (pilot weather report)

Retrieved 2019/01/22 01:00 UTC (52 minutes ago):

SBGR 220100Z 14002KT CAVOK 23/23 Q1020

TAF (pilot weather forecast)

Retrieved 2019/01/22 00:27 UTC (1 hour ago):

TAF SBGR 212130Z 2200/2306 12005KT 8000 NSCTN21/2209Z TX31/2217Z BECMG 2202/2204 07003KT PROB30 2209/2211 3000 BR BKN005 BECMG 2212/2214 32005KT SCT040 BECMG 2214/2216 23005KT BECMG 2216/2218 16008KT BKN035 FEW040TCU BECMG 2219/2221 TSRA BKN025 FEW035CB BECMG 2221/2223 12005KT NSW SCT020 RMK PHG